Time;durP1;ratioP1;P1;durP2;ratioP2;P2;SDS_P1;SDS_P2;PMS_P1;PMS_P2;Temp;Humidity;BMP_temperature;BMP_pressure;BME280_temperature;BME280_humidity;BME280_pressure;Samples;Min_cycle;Max_cycle;Signal;HPM_P1;HPM_P2
2022/03/20 00:02:00;;;;;;;21.23;8.23;;;7.70;84.50;;;;;;5012930;28;20379;-71
2022/03/20 00:04:26;;;;;;;14.38;8.15;;;7.60;84.60;;;;;;5028050;28;20026;-70
2022/03/20 00:06:51;;;;;;;21.52;8.40;;;7.50;84.80;;;;;;5012712;28;20030;-72
2022/03/20 00:09:17;;;;;;;18.98;8.77;;;7.50;84.70;;;;;;5012362;28;20096;-71
2022/03/20 00:11:42;;;;;;;19.52;8.70;;;7.50;84.50;;;;;;5011723;28;20372;-71
2022/03/20 00:14:08;;;;;;;21.67;9.10;;;7.40;84.60;;;;;;5027841;28;20416;-71
2022/03/20 00:16:33;;;;;;;20.70;8.23;;;7.40;84.50;;;;;;5012545;28;20034;-72
2022/03/20 00:18:59;;;;;;;18.40;8.73;;;7.40;84.70;;;;;;5012820;28;20084;-71
2022/03/20 00:21:25;;;;;;;18.98;9.05;;;7.30;84.80;;;;;;5012340;28;20602;-71
2022/03/20 00:23:50;;;;;;;20.63;9.07;;;7.40;84.60;;;;;;5012245;28;20048;-71
2022/03/20 00:26:18;;;;;;;19.30;9.02;;;7.30;84.50;;;;;;5012201;28;20030;-72
2022/03/20 00:28:44;;;;;;;19.60;9.47;;;7.30;84.20;;;;;;5012650;28;20363;-71
2022/03/20 00:31:10;;;;;;;21.48;9.45;;;7.20;84.40;;;;;;5012263;28;20260;-72
2022/03/20 00:33:35;;;;;;;20.63;9.23;;;7.10;84.80;;;;;;5028094;28;20021;-71
2022/03/20 00:36:04;;;;;;;17.88;9.48;;;7.00;84.80;;;;;;5012024;28;20391;-71
2022/03/20 00:38:30;;;;;;;21.55;9.65;;;7.10;84.90;;;;;;5011962;28;20065;-72
2022/03/20 00:40:55;;;;;;;19.00;9.68;;;7.00;84.90;;;;;;5012193;28;20092;-70
2022/03/20 00:43:21;;;;;;;19.63;10.00;;;6.90;84.70;;;;;;5012098;28;20061;-71
2022/03/20 00:45:46;;;;;;;25.35;10.43;;;6.90;84.50;;;;;;5012489;28;20030;-70
2022/03/20 00:48:12;;;;;;;18.75;10.05;;;6.90;84.40;;;;;;5011969;28;20407;-72
2022/03/20 00:50:38;;;;;;;20.35;10.52;;;6.80;84.20;;;;;;5012419;28;20033;-70
2022/03/20 00:53:04;;;;;;;21.85;10.20;;;6.80;84.30;;;;;;5012417;28;20351;-71
2022/03/20 00:55:30;;;;;;;24.02;10.20;;;6.70;84.30;;;;;;5027619;28;20044;-72
2022/03/20 00:57:56;;;;;;;21.17;10.52;;;6.70;84.20;;;;;;5012453;28;20054;-70
2022/03/20 01:00:21;;;;;;;24.75;10.32;;;6.70;83.70;;;;;;5011936;28;20041;-71
2022/03/20 01:02:47;;;;;;;21.05;10.00;;;6.70;83.80;;;;;;5011833;28;20030;-70
2022/03/20 01:05:14;;;;;;;19.63;9.90;;;6.60;83.90;;;;;;5026999;28;20038;-70
2022/03/20 01:07:42;;;;;;;25.58;10.05;;;6.60;83.80;;;;;;5011597;28;20459;-71
2022/03/20 01:10:09;;;;;;;23.38;11.32;;;6.60;83.90;;;;;;5011898;28;20130;-70
2022/03/20 01:12:36;;;;;;;21.27;11.32;;;6.60;84.00;;;;;;5011368;28;20034;-69
2022/03/20 01:15:03;;;;;;;23.70;10.60;;;6.50;84.00;;;;;;5026754;28;20022;-70
2022/03/20 01:17:29;;;;;;;22.95;10.57;;;6.50;84.10;;;;;;5026706;28;20121;-69
2022/03/20 01:19:55;;;;;;;19.63;10.55;;;6.50;84.20;;;;;;5011040;28;20148;-69
2022/03/20 01:22:21;;;;;;;22.30;10.70;;;6.40;84.00;;;;;;5011184;28;20073;-69
2022/03/20 01:24:46;;;;;;;22.25;11.93;;;6.40;84.00;;;;;;5027047;28;20363;-69
2022/03/20 01:27:13;;;;;;;24.23;11.95;;;6.40;84.00;;;;;;5011376;28;20029;-69
2022/03/20 01:29:39;;;;;;;24.58;11.38;;;6.40;83.90;;;;;;5026622;28;20040;-69
2022/03/20 01:32:04;;;;;;;18.90;10.05;;;6.30;83.70;;;;;;5011225;28;20040;-69
2022/03/20 01:34:30;;;;;;;26.25;11.40;;;6.30;83.70;;;;;;5011076;28;20041;-71
2022/03/20 01:36:57;;;;;;;21.60;11.02;;;6.30;83.50;;;;;;5011446;28;20030;-70
2022/03/20 01:39:22;;;;;;;19.90;10.75;;;6.20;83.30;;;;;;5010886;28;20078;-70
2022/03/20 01:41:48;;;;;;;26.40;11.25;;;6.20;83.00;;;;;;5011001;28;20053;-70
2022/03/20 01:44:14;;;;;;;26.40;11.40;;;6.30;82.60;;;;;;5010966;28;20032;-71
2022/03/20 01:46:40;;;;;;;26.23;11.90;;;6.30;82.10;;;;;;5010929;28;20379;-70
2022/03/20 01:49:06;;;;;;;23.38;11.68;;;6.30;81.90;;;;;;5011180;28;20022;-70
2022/03/20 01:54:15;;;;;;;21.45;11.02;;;6.20;81.20;;;;;;5010880;28;20092;-68
2022/03/20 01:56:45;;;;;;;27.75;12.73;;;6.20;80.30;;;;;;5010813;28;20407;-70
2022/03/20 01:59:11;;;;;;;24.05;10.85;;;6.20;80.20;;;;;;5010756;28;20038;-70
2022/03/20 02:01:37;;;;;;;21.42;11.20;;;6.10;79.90;;;;;;5010968;28;20030;-70
2022/03/20 02:04:03;;;;;;;23.27;11.63;;;6.10;79.50;;;;;;5011035;28;20025;-69
2022/03/20 02:06:28;;;;;;;25.25;12.15;;;6.10;79.10;;;;;;5026103;28;20038;-70
2022/03/20 02:08:56;;;;;;;22.58;11.68;;;6.20;78.70;;;;;;5006344;28;20360;-70
2022/03/20 02:11:23;;;;;;;21.25;11.95;;;6.10;78.50;;;;;;5000660;28;20037;-71
2022/03/20 02:13:49;;;;;;;26.13;13.48;;;6.00;78.20;;;;;;5010536;28;20026;-69
2022/03/20 02:16:15;;;;;;;25.30;12.45;;;6.00;77.90;;;;;;5010491;28;20037;-70
2022/03/20 02:18:40;;;;;;;28.90;11.90;;;6.00;77.90;;;;;;5010868;28;20029;-70
2022/03/20 02:21:06;;;;;;;27.38;12.30;;;5.90;77.70;;;;;;5009182;28;20042;-70
2022/03/20 02:23:34;;;;;;;22.17;11.23;;;5.90;77.50;;;;;;5010424;28;20034;-71
2022/03/20 02:26:00;;;;;;;24.73;12.63;;;5.90;77.20;;;;;;5006074;28;20037;-70
2022/03/20 02:28:26;;;;;;;28.42;12.43;;;5.90;77.10;;;;;;4993068;28;20027;-71
2022/03/20 02:30:52;;;;;;;25.05;12.50;;;5.90;76.90;;;;;;5010814;28;20572;-69
2022/03/20 02:33:21;;;;;;;24.63;12.48;;;5.90;76.80;;;;;;5010344;28;20516;-69
2022/03/20 02:35:47;;;;;;;26.70;12.63;;;5.90;76.40;;;;;;5023963;28;20026;-70
2022/03/20 02:38:13;;;;;;;24.02;12.30;;;5.90;76.40;;;;;;5014610;28;20368;-70
2022/03/20 02:40:39;;;;;;;24.83;12.35;;;5.90;76.30;;;;;;5014500;28;20478;-70
2022/03/20 02:43:07;;;;;;;28.08;13.50;;;5.80;76.10;;;;;;5014720;28;20102;-69
2022/03/20 02:45:34;;;;;;;25.58;12.48;;;5.90;76.00;;;;;;5014250;28;20040;-69
2022/03/20 02:48:04;;;;;;;20.98;12.15;;;5.90;75.80;;;;;;5014125;28;20489;-70
2022/03/20 02:50:32;;;;;;;26.63;12.43;;;5.80;75.60;;;;;;5014133;28;20042;-70
2022/03/20 02:53:04;;;;;;;24.73;12.88;;;5.80;75.40;;;;;;5014109;28;20483;-70
2022/03/20 02:55:37;;;;;;;33.85;13.27;;;5.80;75.30;;;;;;5013560;28;20372;-70
2022/03/20 02:58:10;;;;;;;28.00;13.10;;;5.70;75.10;;;;;;5014483;28;20070;-69
2022/03/20 03:00:36;;;;;;;28.83;13.23;;;5.70;75.10;;;;;;5014099;28;20046;-70
2022/03/20 03:03:04;;;;;;;27.30;13.25;;;5.70;75.00;;;;;;5013890;28;20289;-68
2022/03/20 03:05:31;;;;;;;32.83;13.68;;;5.70;74.80;;;;;;5013879;28;20029;-70
2022/03/20 03:10:57;;;;;;;28.80;12.48;;;5.60;74.40;;;;;;5013773;28;20088;-69
2022/03/20 03:13:32;;;;;;;27.42;12.57;;;5.60;74.50;;;;;;5013865;28;20022;-69
2022/03/20 03:16:08;;;;;;;26.40;12.20;;;5.60;74.20;;;;;;5014537;28;20083;-70
2022/03/20 03:18:35;;;;;;;27.45;12.63;;;5.60;74.50;;;;;;5013560;28;20069;-69
2022/03/20 03:21:08;;;;;;;26.03;12.37;;;5.60;73.70;;;;;;5013508;28;20042;-69
2022/03/20 03:23:36;;;;;;;23.02;13.18;;;5.60;73.70;;;;;;5013816;28;20372;-70
2022/03/20 03:26:05;;;;;;;23.27;12.27;;;5.50;73.60;;;;;;5013729;28;20033;-69
2022/03/20 03:28:37;;;;;;;27.08;12.95;;;5.50;73.80;;;;;;5013722;28;20263;-69
2022/03/20 03:31:07;;;;;;;27.15;13.23;;;5.40;73.70;;;;;;5013832;28;20571;-69
2022/03/20 03:33:34;;;;;;;33.00;13.10;;;5.40;73.50;;;;;;5013153;28;20038;-69
2022/03/20 03:36:01;;;;;;;27.55;12.25;;;5.50;73.50;;;;;;5008952;28;20121;-70
2022/03/20 03:38:34;;;;;;;30.05;13.50;;;5.40;73.10;;;;;;4993634;28;20490;-69
2022/03/20 03:40:59;;;;;;;27.33;12.95;;;5.30;73.00;;;;;;4993656;28;20372;-69
2022/03/20 03:43:25;;;;;;;26.77;12.68;;;5.30;72.90;;;;;;4993567;28;20037;-69
2022/03/20 03:45:53;;;;;;;23.98;12.48;;;5.30;72.90;;;;;;4992998;28;20476;-69
2022/03/20 03:48:19;;;;;;;23.75;12.38;;;5.30;72.80;;;;;;4992080;28;20389;-69
2022/03/20 03:50:47;;;;;;;30.05;13.85;;;5.30;72.80;;;;;;4993457;28;20092;-70
2022/03/20 03:53:13;;;;;;;26.60;13.43;;;5.20;72.60;;;;;;4992295;28;20038;-71
2022/03/20 03:55:43;;;;;;;26.15;13.38;;;5.20;72.60;;;;;;4996293;28;20522;-69
2022/03/20 03:58:13;;;;;;;28.13;13.35;;;5.10;72.40;;;;;;5013427;28;20033;-69
2022/03/20 04:00:39;;;;;;;28.13;13.32;;;5.10;72.10;;;;;;5013103;28;20053;-70
2022/03/20 04:03:05;;;;;;;33.08;12.73;;;5.10;71.80;;;;;;5012850;28;20037;-70
2022/03/20 04:05:30;;;;;;;25.88;12.50;;;5.10;71.70;;;;;;5012708;28;20026;-70
2022/03/20 04:07:56;;;;;;;25.52;13.35;;;5.10;71.80;;;;;;5012562;28;20034;-70
2022/03/20 04:10:23;;;;;;;24.35;12.70;;;5.10;71.70;;;;;;5012637;28;20045;-69
2022/03/20 04:12:49;;;;;;;26.90;12.88;;;5.00;71.60;;;;;;5013070;28;20061;-70
2022/03/20 04:15:21;;;;;;;27.27;13.30;;;5.00;71.40;;;;;;5012514;28;20026;-70
2022/03/20 04:17:47;;;;;;;24.42;12.70;;;5.00;71.50;;;;;;5012380;28;20355;-69
2022/03/20 04:20:13;;;;;;;25.98;13.05;;;5.00;71.50;;;;;;5012209;28;20053;-70
2022/03/20 04:23:42;;;;;;;26.33;13.20;;;5.00;71.30;;;;;;5012474;28;20026;-69
2022/03/20 04:25:27;;;;;;;28.55;13.77;;;4.90;71.00;;;;;;5012219;28;20092;-69
2022/03/20 04:27:56;;;;;;;30.65;13.63;;;4.80;71.10;;;;;;5012792;28;20084;-70
2022/03/20 04:30:24;;;;;;;27.90;13.00;;;4.80;71.20;;;;;;5012467;28;20034;-69
2022/03/20 04:32:51;;;;;;;28.90;12.45;;;4.80;71.10;;;;;;5012173;28;20667;-71
2022/03/20 04:35:16;;;;;;;32.88;13.82;;;4.70;70.70;;;;;;5012285;28;20050;-70
2022/03/20 04:37:44;;;;;;;29.17;13.50;;;4.70;70.70;;;;;;5010980;28;20077;-69
2022/03/20 04:40:10;;;;;;;31.90;13.25;;;4.80;70.80;;;;;;5011406;28;20057;-70
2022/03/20 04:42:36;;;;;;;28.10;13.13;;;4.70;70.60;;;;;;5012305;28;20379;-71
2022/03/20 04:45:03;;;;;;;38.35;14.18;;;4.60;70.50;;;;;;5012039;28;20022;-69
2022/03/20 04:58:29;;;;;;;24.17;12.10;;;4.50;70.10;;;;;;4991790;28;20081;-70
2022/03/20 05:00:56;;;;;;;29.40;13.82;;;4.50;70.10;;;;;;4992559;28;20034;-69
2022/03/20 05:03:22;;;;;;;28.50;13.13;;;4.50;69.80;;;;;;4992108;28;20035;-70
2022/03/20 05:05:47;;;;;;;29.38;12.93;;;4.50;69.70;;;;;;4991675;28;20451;-71
2022/03/20 05:08:13;;;;;;;29.98;13.85;;;4.50;69.60;;;;;;5000689;28;20120;-70
2022/03/20 05:13:23;;;;;;;30.83;13.10;;;4.50;68.90;;;;;;5011572;28;20033;-68
2022/03/20 05:15:52;;;;;;;28.20;14.35;;;4.40;69.00;;;;;;5010790;28;20030;-70
2022/03/20 05:18:19;;;;;;;28.40;13.38;;;4.50;69.10;;;;;;5011132;28;20092;-69
2022/03/20 05:20:44;;;;;;;26.07;12.80;;;4.40;68.70;;;;;;5010922;28;20150;-68
2022/03/20 05:23:11;;;;;;;25.00;12.05;;;4.40;68.70;;;;;;5011402;28;20351;-70
2022/03/20 05:25:37;;;;;;;27.67;13.13;;;4.50;68.70;;;;;;5010751;28;20037;-70
2022/03/20 05:28:04;;;;;;;29.48;14.40;;;4.50;68.40;;;;;;5011017;28;20022;-71
2022/03/20 05:30:31;;;;;;;29.27;13.07;;;4.40;68.20;;;;;;5010607;28;20022;-72
2022/03/20 05:32:57;;;;;;;34.33;13.30;;;4.40;68.40;;;;;;5011112;28;20026;-68
2022/03/20 05:35:22;;;;;;;34.08;13.55;;;4.40;68.40;;;;;;5011129;28;20353;-69
2022/03/20 05:37:49;;;;;;;32.17;12.65;;;4.50;68.50;;;;;;5010995;28;20030;-70
2022/03/20 05:40:15;;;;;;;28.35;13.20;;;4.40;68.20;;;;;;5011072;28;20048;-70
2022/03/20 05:42:42;;;;;;;30.95;13.32;;;4.40;68.10;;;;;;5011403;28;20145;-71
2022/03/20 05:45:10;;;;;;;30.50;14.35;;;4.40;68.00;;;;;;5010940;28;20056;-69
2022/03/20 05:47:37;;;;;;;27.83;12.95;;;4.30;68.00;;;;;;5006511;28;20364;-71
2022/03/20 05:50:05;;;;;;;27.07;12.93;;;4.30;67.80;;;;;;4991331;28;20451;-71
2022/03/20 05:52:31;;;;;;;32.33;14.35;;;4.30;67.70;;;;;;4991144;28;20491;-70
2022/03/20 05:55:00;;;;;;;30.52;13.57;;;4.20;67.60;;;;;;4990570;28;20027;-71
2022/03/20 06:00:18;;;;;;;27.88;14.30;;;4.20;67.20;;;;;;4991197;28;20483;-69
2022/03/20 06:02:44;;;;;;;30.08;14.68;;;4.30;67.30;;;;;;4991264;28;20034;-70
2022/03/20 06:05:10;;;;;;;31.33;13.18;;;4.20;66.60;;;;;;4991156;28;20428;-70
2022/03/20 06:07:43;;;;;;;30.15;13.95;;;4.20;66.60;;;;;;4994420;28;20030;-70
2022/03/20 06:10:11;;;;;;;24.40;12.43;;;4.20;66.50;;;;;;5010594;28;20172;-69
2022/03/20 06:12:36;;;;;;;29.45;13.60;;;4.30;66.40;;;;;;5010851;28;20155;-69
2022/03/20 06:15:02;;;;;;;27.02;12.70;;;4.20;66.10;;;;;;5010634;28;20129;-70
2022/03/20 06:17:28;;;;;;;31.02;13.50;;;4.20;65.80;;;;;;5010756;28;20072;-70
2022/03/20 06:19:54;;;;;;;27.02;13.27;;;4.20;65.80;;;;;;5010248;28;20108;-69
2022/03/20 06:22:19;;;;;;;28.80;13.30;;;4.20;65.70;;;;;;5010565;28;20026;-69
2022/03/20 06:24:45;;;;;;;29.08;13.35;;;4.30;65.70;;;;;;5010903;28;20029;-68
2022/03/20 06:27:10;;;;;;;28.90;13.48;;;4.40;65.70;;;;;;5010546;28;20092;-69
2022/03/20 06:29:36;;;;;;;28.70;12.48;;;4.40;65.10;;;;;;5010550;28;20030;-70
2022/03/20 06:32:02;;;;;;;27.33;13.80;;;4.50;65.30;;;;;;5010383;28;20426;-70
2022/03/20 06:34:28;;;;;;;30.35;13.57;;;4.60;64.90;;;;;;5010559;28;20026;-69
2022/03/20 06:36:57;;;;;;;28.15;13.13;;;4.60;64.70;;;;;;5010812;28;20053;-68
2022/03/20 06:39:23;;;;;;;37.65;14.68;;;4.70;64.30;;;;;;5010117;28;20041;-69
2022/03/20 06:41:49;;;;;;;32.78;14.15;;;4.70;64.40;;;;;;5010407;28;20082;-69
2022/03/20 06:44:15;;;;;;;29.88;14.13;;;4.70;64.00;;;;;;5006020;28;20026;-68
2022/03/20 06:46:42;;;;;;;33.83;13.88;;;4.70;64.00;;;;;;4990527;28;20026;-69
2022/03/20 06:49:10;;;;;;;31.45;14.27;;;4.70;63.80;;;;;;4991112;28;20512;-71
2022/03/20 06:51:36;;;;;;;30.77;14.35;;;4.80;63.90;;;;;;4971780;28;20107;-69
2022/03/20 06:54:02;;;;;;;28.65;13.13;;;4.90;63.70;;;;;;4971231;28;20031;-69
2022/03/20 06:56:28;;;;;;;34.47;14.63;;;4.90;63.60;;;;;;4971253;28;20042;-70
2022/03/20 06:58:55;;;;;;;32.58;13.73;;;4.90;63.40;;;;;;4979771;28;20061;-69
2022/03/20 07:01:21;;;;;;;41.80;16.55;;;4.90;63.30;;;;;;4990881;28;20027;-69
2022/03/20 07:03:47;;;;;;;31.00;14.45;;;5.10;63.40;;;;;;4991123;28;20360;-71
2022/03/20 07:06:12;;;;;;;26.42;14.00;;;5.10;63.00;;;;;;5005710;28;20038;-71
2022/03/20 07:08:38;;;;;;;32.97;14.02;;;5.10;63.30;;;;;;4990474;28;20046;-71
2022/03/20 07:11:03;;;;;;;27.80;13.98;;;5.20;62.70;;;;;;4989318;28;20104;-71
2022/03/20 07:16:16;;;;;;;31.25;12.90;;;5.30;62.10;;;;;;5010029;28;20064;-70
2022/03/20 07:18:42;;;;;;;;;;;5.40;61.70;;;;;;5026201;28;20180;-73
2022/03/20 07:21:08;;;;;;;25.60;12.68;;;5.40;61.70;;;;;;5011455;28;19921;-72
2022/03/20 07:23:35;;;;;;;27.25;13.57;;;5.40;61.30;;;;;;5013595;28;20455;-72
2022/03/20 07:31:29;;;;;;;29.60;13.75;;;5.70;60.90;;;;;;5013764;28;20116;-72
2022/03/20 07:33:55;;;;;;;31.17;13.68;;;5.80;60.50;;;;;;5013829;28;20105;-72
2022/03/20 07:36:20;;;;;;;27.75;13.35;;;5.90;60.20;;;;;;5009014;28;20422;-71
2022/03/20 07:38:46;;;;;;;31.27;14.23;;;5.90;60.10;;;;;;5006686;28;20037;-72
2022/03/20 07:41:12;;;;;;;29.92;13.45;;;6.00;60.00;;;;;;5013298;28;20512;-72
2022/03/20 07:43:37;;;;;;;27.38;13.32;;;6.00;59.80;;;;;;5013416;28;20083;-71
2022/03/20 07:46:06;;;;;;;28.38;14.27;;;6.10;59.40;;;;;;5013586;28;20103;-71
2022/03/20 07:48:32;;;;;;;27.02;13.57;;;6.20;59.20;;;;;;5028617;28;20154;-70
2022/03/20 07:50:59;;;;;;;25.42;13.82;;;6.20;59.20;;;;;;5013061;28;20109;-71
2022/03/20 07:53:25;;;;;;;27.10;13.02;;;6.30;58.80;;;;;;5028281;28;20038;-71
2022/03/20 07:55:50;;;;;;;31.40;14.30;;;6.40;58.90;;;;;;5013074;28;20034;-72
2022/03/20 07:58:17;;;;;;;31.88;14.70;;;6.40;58.50;;;;;;5012899;28;20026;-72
2022/03/20 08:00:43;;;;;;;30.45;13.98;;;6.50;58.20;;;;;;5013339;28;20058;-69
2022/03/20 08:03:09;;;;;;;30.92;14.50;;;6.50;58.10;;;;;;5008582;28;20082;-73
2022/03/20 08:05:34;;;;;;;29.33;13.98;;;6.60;57.90;;;;;;5001616;28;20433;-73
2022/03/20 08:08:03;;;;;;;37.33;15.20;;;6.60;57.50;;;;;;5023121;28;20084;-73
2022/03/20 08:10:29;;;;;;;31.90;12.98;;;6.60;57.60;;;;;;5031660;28;20502;-75
2022/03/20 08:12:55;;;;;;;30.90;15.30;;;6.70;57.60;;;;;;5033308;28;20541;-74
2022/03/20 08:15:21;;;;;;;29.38;14.32;;;6.80;57.40;;;;;;5032623;28;20411;-73
2022/03/20 08:17:48;;;;;;;31.10;14.43;;;6.80;57.30;;;;;;5031498;28;20462;-74
2022/03/20 08:20:14;;;;;;;34.58;15.55;;;6.90;57.50;;;;;;5032044;28;20057;-74
2022/03/20 08:22:40;;;;;;;30.92;14.77;;;6.90;57.20;;;;;;5032517;28;20040;-74
2022/03/20 08:25:07;;;;;;;30.70;14.82;;;7.10;57.40;;;;;;5032905;28;20134;-73
2022/03/20 08:27:46;;;;;;;33.75;15.00;;;7.10;57.10;;;;;;5032864;28;20120;-73
2022/03/20 08:30:15;;;;;;;32.65;14.05;;;7.30;57.50;;;;;;5031194;28;20025;-74
2022/03/20 08:32:41;;;;;;;33.75;16.08;;;7.30;56.90;;;;;;5031843;28;20025;-75
2022/03/20 08:35:09;;;;;;;28.88;15.18;;;7.40;56.70;;;;;;5032051;28;20030;-74
2022/03/20 08:37:35;;;;;;;37.15;16.27;;;7.40;56.80;;;;;;5032376;28;20044;-73
2022/03/20 08:40:03;;;;;;;33.67;15.85;;;7.40;56.70;;;;;;5032692;28;20436;-75
2022/03/20 08:42:29;;;;;;;32.58;16.02;;;7.60;56.80;;;;;;5032267;28;20044;-73
2022/03/20 08:44:54;;;;;;;34.00;15.90;;;7.70;56.70;;;;;;5032050;28;20033;-74
2022/03/20 08:47:20;;;;;;;29.88;15.48;;;7.80;56.80;;;;;;5032093;28;20053;-76
2022/03/20 08:49:46;;;;;;;31.58;15.93;;;8.00;56.60;;;;;;5030668;28;20026;-72
2022/03/20 08:52:11;;;;;;;30.15;15.75;;;8.00;55.30;;;;;;5032075;28;20331;-72
2022/03/20 08:54:37;;;;;;;33.40;15.52;;;8.10;55.20;;;;;;5032340;28;20438;-73
2022/03/20 08:57:05;;;;;;;31.48;15.30;;;8.30;55.20;;;;;;5030863;28;20116;-74
2022/03/20 08:59:31;;;;;;;31.65;15.50;;;8.40;55.20;;;;;;5031724;28;20048;-76
2022/03/20 09:01:57;;;;;;;31.90;14.38;;;8.70;54.90;;;;;;5031669;28;20116;-74
2022/03/20 09:04:22;;;;;;;30.33;15.13;;;8.80;54.00;;;;;;5031549;28;20025;-73
2022/03/20 09:06:49;;;;;;;30.65;15.38;;;9.60;53.80;;;;;;5031926;28;20578;-71
2022/03/20 09:09:15;;;;;;;33.85;15.32;;;11.00;51.40;;;;;;5031780;28;20105;-72
2022/03/20 09:11:42;;;;;;;33.47;15.43;;;12.30;49.10;;;;;;5031748;28;20109;-73
2022/03/20 09:14:08;;;;;;;27.70;14.75;;;13.50;47.60;;;;;;5031457;28;20542;-76
2022/03/20 09:19:18;;;;;;;27.33;14.65;;;15.50;44.60;;;;;;5031184;28;20032;-72
2022/03/20 09:21:44;;;;;;;27.42;15.23;;;16.80;41.90;;;;;;5031613;28;20049;-73
2022/03/20 09:24:10;;;;;;;32.95;16.63;;;17.80;41.00;;;;;;5031144;28;20032;-71
2022/03/20 09:26:36;;;;;;;30.83;16.40;;;18.30;39.00;;;;;;5030038;28;20025;-74
2022/03/20 09:29:03;;;;;;;32.67;15.10;;;18.90;38.10;;;;;;5030957;28;20025;-75
2022/03/20 09:31:31;;;;;;;29.40;15.23;;;19.40;37.20;;;;;;5029995;28;20056;-74
2022/03/20 09:33:57;;;;;;;25.02;15.20;;;19.70;36.70;;;;;;5031527;28;20087;-74
2022/03/20 09:36:23;;;;;;;24.85;14.85;;;19.70;34.50;;;;;;5030972;28;20034;-76
2022/03/20 09:38:50;;;;;;;28.40;15.07;;;20.00;34.40;;;;;;5031215;28;20050;-74
2022/03/20 09:41:16;;;;;;;27.23;14.63;;;20.40;35.10;;;;;;5031021;28;20524;-74
2022/03/20 09:43:44;;;;;;;24.40;14.82;;;21.10;33.80;;;;;;5030334;28;20033;-75
2022/03/20 09:46:10;;;;;;;25.83;15.25;;;21.30;33.60;;;;;;5031349;28;20028;-74
2022/03/20 09:48:35;;;;;;;25.52;15.13;;;21.60;34.90;;;;;;5031087;28;20029;-74
2022/03/20 09:51:05;;;;;;;27.45;15.73;;;22.10;32.30;;;;;;5031000;28;20379;-73
2022/03/20 09:53:31;;;;;;;26.05;14.85;;;21.60;31.90;;;;;;5030683;28;20102;-73
2022/03/20 09:55:57;;;;;;;27.63;15.65;;;21.80;31.60;;;;;;5031005;28;20025;-74
2022/03/20 09:58:28;;;;;;;25.00;14.27;;;21.80;31.80;;;;;;5030494;28;20440;-73
2022/03/20 10:00:55;;;;;;;23.88;14.75;;;21.30;30.80;;;;;;5031293;28;20045;-74
2022/03/20 10:03:23;;;;;;;25.27;14.85;;;21.70;31.40;;;;;;5030782;28;20049;-77
2022/03/20 10:06:06;;;;;;;24.73;14.98;;;21.60;30.50;;;;;;5030553;28;20095;-75
2022/03/20 10:08:32;;;;;;;28.23;15.65;;;21.60;30.40;;;;;;5030668;28;20240;-74
2022/03/20 10:11:17;;;;;;;26.95;15.10;;;21.90;30.70;;;;;;5029486;28;20034;-78
2022/03/20 10:14:16;;;;;;;25.73;14.80;;;22.90;31.10;;;;;;5030635;28;20136;-77
2022/03/20 10:16:45;;;;;;;24.80;14.60;;;22.70;30.60;;;;;;5028365;28;20053;-73
2022/03/20 10:19:40;;;;;;;22.95;15.02;;;23.20;30.50;;;;;;5029935;28;20041;-77
2022/03/20 10:22:14;;;;;;;24.80;14.20;;;23.70;29.40;;;;;;5026177;28;20045;-76
2022/03/20 10:24:50;;;;;;;29.38;15.18;;;23.50;29.60;;;;;;5030595;28;20030;-80
2022/03/20 10:27:16;;;;;;;28.67;15.60;;;23.90;29.40;;;;;;5029035;28;20034;-75
2022/03/20 10:29:56;;;;;;;24.38;14.70;;;22.90;28.60;;;;;;5030352;28;20113;-76
2022/03/20 10:32:22;;;;;;;24.23;14.23;;;22.70;29.10;;;;;;5029568;28;20352;-75
2022/03/20 10:35:04;;;;;;;24.27;14.27;;;22.30;28.90;;;;;;5028955;28;20478;-75
2022/03/20 10:37:54;;;;;;;22.52;14.07;;;22.60;28.90;;;;;;5030024;28;20041;-76
2022/03/20 10:40:28;;;;;;;23.23;14.98;;;22.40;29.30;;;;;;5030267;28;20021;-78
2022/03/20 10:43:14;;;;;;;23.13;14.23;;;23.00;29.60;;;;;;5030707;28;20033;-74
2022/03/20 10:46:00;;;;;;;24.35;13.05;;;23.00;28.20;;;;;;5030170;28;20471;-73
2022/03/20 10:48:59;;;;;;;25.05;13.52;;;23.10;28.70;;;;;;5030018;28;20083;-74
2022/03/20 10:51:37;;;;;;;25.90;14.18;;;22.50;28.10;;;;;;5017730;28;20049;-73
2022/03/20 10:54:14;;;;;;;24.13;14.25;;;22.10;28.90;;;;;;5030179;28;20427;-74
2022/03/20 10:57:01;;;;;;;26.50;13.43;;;22.10;28.20;;;;;;5032677;28;20391;-73
2022/03/20 10:59:29;;;;;;;24.42;13.70;;;22.80;28.40;;;;;;5033833;28;20121;-72
2022/03/20 11:01:55;;;;;;;23.98;13.32;;;22.70;28.20;;;;;;5033835;28;20041;-72
2022/03/20 11:04:23;;;;;;;23.35;13.93;;;22.30;28.20;;;;;;5033777;28;20032;-73
2022/03/20 11:06:50;;;;;;;19.02;12.55;;;22.20;28.00;;;;;;5034304;28;20056;-75
2022/03/20 11:09:16;;;;;;;24.17;13.35;;;22.50;28.20;;;;;;5032506;28;20029;-70
2022/03/20 11:11:50;;;;;;;20.25;12.98;;;22.60;28.40;;;;;;5033690;28;20036;-72
2022/03/20 11:14:18;;;;;;;20.50;13.02;;;22.80;28.50;;;;;;5033639;28;20026;-75
2022/03/20 11:16:48;;;;;;;20.40;12.38;;;22.70;28.60;;;;;;5033531;28;20026;-71
2022/03/20 11:19:17;;;;;;;25.60;13.45;;;22.40;28.60;;;;;;5033672;28;20029;-69
2022/03/20 11:21:45;;;;;;;28.17;12.88;;;22.20;28.40;;;;;;5033511;28;20514;-72
2022/03/20 11:24:14;;;;;;;32.03;14.52;;;22.70;30.20;;;;;;5033287;28;20048;-71
2022/03/20 11:26:42;;;;;;;21.70;13.65;;;22.00;28.50;;;;;;5033227;28;20517;-71
2022/03/20 11:29:10;;;;;;;21.65;13.77;;;22.30;29.00;;;;;;5033339;28;20125;-71
2022/03/20 11:31:37;;;;;;;21.00;13.18;;;22.60;28.40;;;;;;5032077;28;20048;-71
2022/03/20 11:34:07;;;;;;;30.20;13.75;;;22.30;28.50;;;;;;5033740;28;20025;-71
2022/03/20 11:36:59;;;;;;;23.73;12.90;;;21.80;30.20;;;;;;5033355;28;20041;-71
2022/03/20 11:39:25;;;;;;;21.02;12.63;;;22.30;29.70;;;;;;5033070;28;20029;-71
2022/03/20 11:42:20;;;;;;;24.65;15.88;;;21.80;28.40;;;;;;5032898;28;20095;-71
2022/03/20 11:44:53;;;;;;;23.58;14.07;;;21.70;28.90;;;;;;5032878;28;20053;-72
2022/03/20 11:47:21;;;;;;;25.98;13.90;;;21.90;28.60;;;;;;5033059;28;20199;-71
2022/03/20 11:50:26;;;;;;;22.40;12.70;;;20.90;28.50;;;;;;5032048;28;20033;-70
2022/03/20 11:53:02;;;;;;;22.88;13.00;;;20.10;28.30;;;;;;5010558;28;20510;-70
2022/03/20 11:55:41;;;;;;;20.45;11.60;;;19.50;28.50;;;;;;5030255;28;20131;-70
2022/03/20 11:58:17;;;;;;;18.30;11.15;;;18.90;28.80;;;;;;5032993;28;20025;-71
2022/03/20 12:00:44;;;;;;;21.27;13.23;;;18.70;29.50;;;;;;5032736;28;20041;-71
2022/03/20 12:03:13;;;;;;;18.85;10.68;;;18.30;29.30;;;;;;5032189;28;20036;-72
2022/03/20 12:05:43;;;;;;;18.48;11.35;;;17.70;29.60;;;;;;5032444;28;20045;-70
2022/03/20 12:08:08;;;;;;;25.50;12.85;;;17.60;29.90;;;;;;5031246;28;20099;-70
2022/03/20 12:10:45;;;;;;;19.67;12.32;;;17.00;29.90;;;;;;5031321;28;20463;-70
2022/03/20 12:13:42;;;;;;;22.97;11.27;;;16.90;30.30;;;;;;5032570;28;20021;-71
2022/03/20 12:16:09;;;;;;;17.92;11.55;;;16.70;30.40;;;;;;5032833;28;20109;-72
2022/03/20 12:19:20;;;;;;;23.05;12.27;;;16.60;30.70;;;;;;5030727;28;20048;-71
2022/03/20 12:22:03;;;;;;;22.92;11.95;;;16.40;31.00;;;;;;5023363;28;20046;-70
2022/03/20 12:24:37;;;;;;;21.33;11.75;;;16.20;31.40;;;;;;5032275;28;20030;-70
2022/03/20 12:27:24;;;;;;;23.63;13.00;;;16.30;31.60;;;;;;5032015;28;20120;-71
2022/03/20 12:30:10;;;;;;;18.40;11.23;;;16.20;31.80;;;;;;5030864;28;20022;-70
2022/03/20 12:32:48;;;;;;;23.65;11.07;;;16.30;31.80;;;;;;5032047;28;20041;-70
2022/03/20 12:35:21;;;;;;;24.33;11.88;;;16.20;31.80;;;;;;5031931;28;20060;-70
2022/03/20 12:37:48;;;;;;;18.40;11.38;;;16.00;31.50;;;;;;5030759;28;20428;-71
2022/03/20 12:40:18;;;;;;;23.60;12.30;;;15.80;31.80;;;;;;5031890;28;20435;-70
2022/03/20 12:43:10;;;;;;;24.75;12.00;;;15.80;32.00;;;;;;5032245;28;20482;-70
2022/03/20 12:45:42;;;;;;;22.80;11.52;;;15.60;32.30;;;;;;5031986;28;20079;-71
2022/03/20 12:48:10;;;;;;;19.73;11.30;;;15.60;32.60;;;;;;5031914;28;20125;-71
2022/03/20 12:50:38;;;;;;;20.55;11.40;;;15.70;32.60;;;;;;5031591;28;20091;-71
2022/03/20 12:53:10;;;;;;;16.60;10.45;;;15.70;32.60;;;;;;5031758;28;20065;-71
2022/03/20 12:55:37;;;;;;;19.92;10.77;;;15.90;32.80;;;;;;5030387;28;20030;-71
2022/03/20 12:58:04;;;;;;;23.10;11.40;;;15.90;32.30;;;;;;5030981;28;20053;-71
2022/03/20 13:00:32;;;;;;;21.00;11.45;;;15.80;31.70;;;;;;5031553;28;20037;-71
2022/03/20 13:03:08;;;;;;;19.15;10.88;;;15.80;31.80;;;;;;5030319;28;20091;-71
2022/03/20 13:05:38;;;;;;;16.48;10.35;;;15.80;31.70;;;;;;5031337;28;20490;-70
2022/03/20 13:08:05;;;;;;;16.75;10.45;;;15.80;31.70;;;;;;5031263;28;20400;-70
2022/03/20 13:10:39;;;;;;;23.23;11.83;;;15.90;31.80;;;;;;5031292;28;20493;-70
2022/03/20 13:13:07;;;;;;;17.10;10.77;;;15.60;31.80;;;;;;5031659;28;20026;-71
2022/03/20 13:15:40;;;;;;;21.63;11.43;;;15.70;32.10;;;;;;5031586;28;20117;-69
2022/03/20 13:18:09;;;;;;;22.15;11.10;;;15.40;32.00;;;;;;5031015;28;20033;-70